Time;durP1;ratioP1;P1;durP2;ratioP2;P2;SDS_P1;SDS_P2;PMS_P1;PMS_P2;Temp;Humidity;BMP_temperature;BMP_pressure;BME280_temperature;BME280_humidity;BME280_pressure;Samples;Min_cycle;Max_cycle;Signal;HPM_P1;HPM_P2
2022/09/14 00:01:17;;;;;;;0.50;0.50;;;24.20;56.40;;;;;;5103630;28;20031;-59
2022/09/14 00:03:44;;;;;;;0.47;0.47;;;24.20;56.50;;;;;;5103699;28;20019;-60
2022/09/14 00:06:13;;;;;;;0.90;0.40;;;24.20;56.50;;;;;;5103642;28;20331;-59
2022/09/14 00:08:39;;;;;;;0.50;0.47;;;24.20;56.50;;;;;;5103607;28;20050;-59
2022/09/14 00:11:11;;;;;;;0.40;0.40;;;24.20;56.50;;;;;;5103456;28;20040;-59
2022/09/14 00:13:39;;;;;;;0.45;0.43;;;24.20;56.50;;;;;;5103592;28;20158;-59
2022/09/14 00:16:09;;;;;;;0.40;0.40;;;24.20;56.50;;;;;;5103577;28;20016;-61
2022/09/14 00:18:35;;;;;;;0.40;0.40;;;24.10;56.50;;;;;;5103539;28;20083;-60
2022/09/14 00:21:02;;;;;;;0.38;0.38;;;24.10;56.50;;;;;;5103433;28;20020;-60
2022/09/14 00:23:28;;;;;;;0.47;0.40;;;24.20;56.50;;;;;;5103480;28;20083;-60
2022/09/14 00:25:54;;;;;;;0.30;0.30;;;24.10;56.50;;;;;;5107172;28;20012;-59
2022/09/14 00:28:20;;;;;;;0.32;0.32;;;24.10;56.50;;;;;;5107550;28;20040;-60
2022/09/14 00:30:46;;;;;;;0.40;0.40;;;24.20;56.50;;;;;;5107522;28;20024;-59
2022/09/14 00:33:12;;;;;;;0.30;0.30;;;24.10;56.50;;;;;;5107473;28;20028;-59
2022/09/14 00:35:39;;;;;;;0.47;0.47;;;24.10;56.50;;;;;;5107387;28;20027;-59
2022/09/14 00:38:06;;;;;;;0.73;0.43;;;24.10;56.50;;;;;;5107370;28;20311;-60
2022/09/14 00:40:32;;;;;;;0.40;0.40;;;24.10;56.50;;;;;;5107258;28;20099;-59
2022/09/14 00:42:58;;;;;;;0.30;0.30;;;24.10;56.50;;;;;;5107269;28;20020;-59
2022/09/14 00:45:24;;;;;;;0.60;0.50;;;24.10;56.50;;;;;;5107253;28;20027;-60
2022/09/14 00:47:52;;;;;;;0.40;0.40;;;24.10;56.50;;;;;;5107184;28;20065;-59
2022/09/14 00:50:19;;;;;;;0.40;0.40;;;24.10;56.60;;;;;;5107120;28;20024;-59
2022/09/14 00:52:48;;;;;;;0.43;0.43;;;24.10;56.60;;;;;;5107152;28;20273;-61
2022/09/14 00:55:18;;;;;;;0.45;0.45;;;24.10;56.50;;;;;;5107056;28;20249;-59
2022/09/14 00:57:52;;;;;;;0.28;0.28;;;24.10;56.50;;;;;;5107015;28;20016;-59
2022/09/14 01:00:22;;;;;;;0.40;0.40;;;24.10;56.50;;;;;;5107159;28;20016;-59
2022/09/14 01:02:48;;;;;;;0.40;0.40;;;24.10;56.60;;;;;;5106900;28;20061;-60
2022/09/14 01:05:15;;;;;;;0.30;0.30;;;24.10;56.50;;;;;;5107169;28;20032;-60
2022/09/14 01:08:13;;;;;;;1.45;0.93;;;24.10;56.60;;;;;;5106828;28;20024;-60
2022/09/14 01:10:46;;;;;;;;;;;24.00;56.60;;;;;;5107075;28;20047;-60
2022/09/14 01:13:27;;;;;;;0.52;0.52;;;24.10;56.60;;;;;;5106726;28;20188;-59
2022/09/14 01:16:17;;;;;;;0.35;0.35;;;24.10;56.60;;;;;;5106709;28;20110;-60
2022/09/14 01:18:51;;;;;;;1.48;0.50;;;24.00;56.60;;;;;;5106654;28;20080;-60
2022/09/14 01:21:27;;;;;;;0.47;0.47;;;24.00;56.60;;;;;;5106500;28;20020;-59
2022/09/14 01:24:15;;;;;;;0.40;0.40;;;24.00;56.60;;;;;;5106853;28;20026;-60
2022/09/14 01:26:41;;;;;;;0.47;0.47;;;24.00;56.60;;;;;;5106498;28;20054;-60
2022/09/14 01:29:14;;;;;;;0.50;0.50;;;24.00;56.60;;;;;;5106691;28;20075;-59
2022/09/14 01:31:58;;;;;;;0.30;0.30;;;24.00;56.60;;;;;;5106402;28;20019;-59
2022/09/14 01:34:35;;;;;;;0.43;0.40;;;24.00;56.60;;;;;;5106386;28;20251;-59
2022/09/14 01:37:17;;;;;;;0.40;0.40;;;24.00;56.60;;;;;;5105592;28;20079;-59
2022/09/14 01:39:47;;;;;;;0.40;0.40;;;24.00;56.60;;;;;;5106211;28;20016;-59
2022/09/14 01:42:16;;;;;;;0.40;0.40;;;24.00;56.60;;;;;;5106247;28;20020;-60
2022/09/14 01:44:46;;;;;;;0.47;0.47;;;24.00;56.50;;;;;;5106137;28;20370;-58
2022/09/14 01:47:19;;;;;;;0.40;0.40;;;24.00;56.60;;;;;;5106108;28;20016;-59
2022/09/14 01:49:51;;;;;;;0.30;0.30;;;24.00;56.60;;;;;;5106092;28;20039;-60
2022/09/14 01:52:29;;;;;;;0.40;0.40;;;24.00;56.60;;;;;;5106005;28;20016;-60
2022/09/14 01:55:04;;;;;;;0.55;0.55;;;24.00;56.60;;;;;;5106002;28;20020;-60
2022/09/14 01:57:44;;;;;;;0.38;0.38;;;24.00;56.60;;;;;;5105844;28;20043;-59
2022/09/14 02:00:15;;;;;;;0.50;0.40;;;24.00;56.60;;;;;;5105760;28;20016;-59
2022/09/14 02:02:55;;;;;;;0.45;0.45;;;24.00;56.60;;;;;;5105811;28;20027;-59
2022/09/14 02:05:33;;;;;;;0.40;0.40;;;24.00;56.60;;;;;;5105746;28;20019;-60
2022/09/14 02:07:59;;;;;;;0.25;0.25;;;24.00;56.60;;;;;;5105661;28;20080;-59
2022/09/14 02:10:26;;;;;;;0.40;0.40;;;24.00;56.60;;;;;;5105463;28;20048;-60
2022/09/14 02:12:53;;;;;;;0.45;0.45;;;24.00;56.60;;;;;;5105556;28;20038;-59
2022/09/14 02:15:20;;;;;;;0.50;0.50;;;23.90;56.50;;;;;;5105546;28;20016;-59
2022/09/14 02:17:46;;;;;;;0.63;0.40;;;24.00;56.60;;;;;;5105472;28;20024;-58
2022/09/14 02:20:32;;;;;;;0.30;0.30;;;24.00;56.60;;;;;;5105313;28;20016;-59
2022/09/14 02:22:58;;;;;;;0.40;0.40;;;24.00;56.60;;;;;;5105385;28;20037;-59
2022/09/14 02:25:24;;;;;;;0.50;0.50;;;24.00;56.60;;;;;;5105327;28;20027;-60
2022/09/14 02:27:51;;;;;;;0.35;0.35;;;24.00;56.60;;;;;;5105281;28;20293;-59
2022/09/14 02:30:19;;;;;;;1.20;0.60;;;24.00;56.60;;;;;;5105185;28;20020;-61
2022/09/14 02:32:54;;;;;;;0.40;0.40;;;23.90;56.50;;;;;;5105222;28;20016;-59
2022/09/14 02:35:27;;;;;;;0.40;0.40;;;24.00;56.60;;;;;;5105136;28;20024;-60
2022/09/14 02:38:14;;;;;;;0.60;0.60;;;24.00;56.60;;;;;;5087055;28;20024;-60
2022/09/14 02:40:48;;;;;;;0.30;0.30;;;23.90;56.50;;;;;;5104946;28;20024;-59
2022/09/14 02:43:23;;;;;;;0.40;0.40;;;23.90;56.50;;;;;;5105002;28;20020;-59
2022/09/14 02:46:11;;;;;;;0.40;0.40;;;23.90;56.50;;;;;;5104949;28;20238;-59
2022/09/14 02:49:01;;;;;;;0.43;0.43;;;23.90;56.50;;;;;;5103894;28;20020;-59
2022/09/14 02:51:37;;;;;;;0.40;0.40;;;23.90;56.50;;;;;;5104859;28;20239;-59
2022/09/14 02:54:10;;;;;;;0.28;0.28;;;23.90;56.50;;;;;;5104800;28;20208;-59
2022/09/14 02:56:36;;;;;;;0.20;0.20;;;23.90;56.50;;;;;;5104752;28;20068;-59
2022/09/14 02:59:02;;;;;;;0.50;0.50;;;23.90;56.50;;;;;;5104651;28;20086;-58
2022/09/14 03:01:28;;;;;;;0.40;0.40;;;23.90;56.50;;;;;;5104530;28;20031;-58
2022/09/14 03:03:53;;;;;;;0.45;0.45;;;23.90;56.50;;;;;;5104589;28;20012;-58
2022/09/14 03:06:20;;;;;;;0.30;0.30;;;23.90;56.50;;;;;;5104548;28;20024;-60
2022/09/14 03:08:46;;;;;;;0.40;0.40;;;23.90;56.50;;;;;;5104540;28;20023;-59
2022/09/14 03:11:12;;;;;;;0.60;0.50;;;23.90;57.20;;;;;;5104305;28;20047;-59
2022/09/14 03:13:38;;;;;;;0.40;0.40;;;23.90;56.50;;;;;;5104394;28;20077;-59
2022/09/14 03:16:09;;;;;;;0.40;0.40;;;23.90;56.50;;;;;;5104351;28;20338;-59
2022/09/14 03:18:36;;;;;;;0.50;0.50;;;23.90;56.60;;;;;;5104305;28;20334;-60
2022/09/14 03:21:06;;;;;;;0.52;0.52;;;23.90;56.60;;;;;;5104191;28;20434;-58
2022/09/14 03:23:53;;;;;;;0.22;0.22;;;23.80;56.50;;;;;;5104298;28;20071;-60
2022/09/14 03:26:21;;;;;;;0.37;0.37;;;23.90;56.60;;;;;;5104316;28;20077;-60
2022/09/14 03:28:51;;;;;;;0.50;0.50;;;23.90;56.60;;;;;;5104120;28;20247;-60
2022/09/14 03:31:17;;;;;;;0.50;0.50;;;23.90;56.60;;;;;;5104139;28;20047;-59
2022/09/14 03:33:43;;;;;;;0.50;0.50;;;23.80;56.50;;;;;;5104108;28;20020;-59
2022/09/14 03:36:18;;;;;;;0.80;0.50;;;23.90;56.60;;;;;;5104063;28;20066;-60
2022/09/14 03:38:50;;;;;;;0.38;0.38;;;23.90;56.60;;;;;;5104065;28;20016;-59
2022/09/14 03:41:16;;;;;;;0.50;0.50;;;23.80;56.50;;;;;;5103978;28;20022;-59
2022/09/14 03:43:42;;;;;;;0.70;0.63;;;23.80;56.50;;;;;;5103896;28;20023;-59
2022/09/14 03:46:11;;;;;;;0.22;0.22;;;23.80;57.10;;;;;;5104161;28;20016;-59
2022/09/14 03:48:37;;;;;;;0.35;0.32;;;23.80;56.50;;;;;;5103899;28;20016;-60
2022/09/14 03:51:05;;;;;;;0.45;0.45;;;23.90;56.60;;;;;;5103847;28;20044;-61
2022/09/14 03:53:32;;;;;;;0.50;0.50;;;23.80;56.50;;;;;;5103808;28;20026;-60
2022/09/14 03:55:58;;;;;;;0.30;0.30;;;23.80;56.50;;;;;;5103796;28;20362;-60
2022/09/14 03:58:24;;;;;;;0.65;0.43;;;23.80;56.50;;;;;;5104007;28;20054;-59
2022/09/14 04:00:50;;;;;;;0.40;0.40;;;23.80;56.50;;;;;;5103363;28;20015;-60
2022/09/14 04:03:16;;;;;;;0.40;0.40;;;23.80;56.50;;;;;;5103639;28;20020;-59
2022/09/14 04:05:44;;;;;;;0.50;0.50;;;23.80;56.60;;;;;;5103621;28;20068;-60
2022/09/14 04:08:10;;;;;;;0.60;0.60;;;23.80;56.50;;;;;;5103660;28;20263;-60
2022/09/14 04:10:38;;;;;;;0.50;0.50;;;23.80;56.60;;;;;;5103419;28;20079;-60
2022/09/14 04:13:04;;;;;;;0.50;0.50;;;23.80;56.60;;;;;;5103570;28;20244;-59
2022/09/14 04:15:30;;;;;;;0.40;0.40;;;23.80;56.60;;;;;;5103575;28;20081;-59
2022/09/14 04:17:56;;;;;;;0.52;0.52;;;23.80;56.60;;;;;;5103569;28;20016;-59
2022/09/14 04:20:22;;;;;;;0.43;0.43;;;23.80;56.60;;;;;;5103445;28;20215;-60
2022/09/14 04:22:47;;;;;;;0.40;0.40;;;23.80;56.60;;;;;;5103530;28;20023;-60
2022/09/14 04:25:13;;;;;;;0.60;0.40;;;23.80;56.60;;;;;;5103495;28;20077;-59
2022/09/14 04:27:39;;;;;;;0.30;0.30;;;23.80;56.60;;;;;;5103496;28;20043;-59
2022/09/14 04:30:05;;;;;;;0.40;0.40;;;23.80;56.70;;;;;;5103445;28;20063;-59
2022/09/14 04:32:31;;;;;;;0.40;0.40;;;23.80;56.60;;;;;;5103402;28;20020;-59
2022/09/14 04:34:57;;;;;;;0.60;0.60;;;23.80;56.60;;;;;;5103414;28;20027;-59
2022/09/14 04:37:23;;;;;;;0.50;0.50;;;23.80;56.60;;;;;;5103353;28;20071;-59
2022/09/14 04:39:49;;;;;;;0.35;0.35;;;23.80;56.60;;;;;;5103323;28;20020;-60
2022/09/14 04:42:15;;;;;;;0.30;0.30;;;23.80;56.60;;;;;;5103609;28;20219;-60
2022/09/14 04:44:40;;;;;;;0.20;0.20;;;23.70;56.50;;;;;;5103290;28;20095;-59
2022/09/14 04:47:06;;;;;;;0.40;0.35;;;23.80;56.60;;;;;;5103308;28;20023;-60
2022/09/14 04:49:32;;;;;;;0.40;0.40;;;23.80;56.60;;;;;;5103243;28;20024;-59
2022/09/14 04:51:57;;;;;;;0.60;0.50;;;23.80;56.60;;;;;;5103223;28;20016;-59
2022/09/14 04:54:23;;;;;;;0.47;0.47;;;23.80;56.50;;;;;;5103211;28;20043;-59
2022/09/14 04:56:49;;;;;;;0.47;0.38;;;23.80;56.60;;;;;;5103180;28;20027;-60
2022/09/14 04:59:15;;;;;;;0.52;0.50;;;23.80;56.60;;;;;;5103130;28;20031;-60
2022/09/14 05:01:43;;;;;;;0.52;0.40;;;23.80;56.60;;;;;;5103069;28;20043;-60
2022/09/14 05:04:10;;;;;;;0.40;0.40;;;23.80;56.60;;;;;;5103071;28;20027;-60
2022/09/14 05:06:38;;;;;;;0.50;0.50;;;23.80;56.60;;;;;;5103028;28;20312;-59
2022/09/14 05:09:08;;;;;;;0.43;0.43;;;23.80;56.60;;;;;;5103074;28;20087;-59
2022/09/14 05:11:36;;;;;;;1.67;0.43;;;23.80;56.60;;;;;;5104299;28;20243;-60
2022/09/14 05:14:02;;;;;;;0.90;0.50;;;23.80;56.60;;;;;;5106686;28;20249;-59
2022/09/14 05:16:32;;;;;;;0.45;0.45;;;23.70;56.60;;;;;;5106655;28;20280;-59
2022/09/14 05:19:01;;;;;;;0.60;0.60;;;23.80;56.60;;;;;;5106933;28;20015;-60
2022/09/14 05:21:28;;;;;;;0.40;0.40;;;23.80;56.60;;;;;;5106750;28;20016;-60
2022/09/14 05:24:02;;;;;;;0.35;0.30;;;23.70;56.60;;;;;;5106543;28;20032;-59
2022/09/14 05:26:30;;;;;;;0.57;0.50;;;23.70;56.60;;;;;;5106404;28;20015;-59
2022/09/14 05:28:58;;;;;;;0.38;0.38;;;23.80;56.60;;;;;;5106395;28;20020;-59
2022/09/14 05:31:25;;;;;;;0.32;0.32;;;23.80;56.50;;;;;;5106335;28;20016;-59
2022/09/14 05:33:52;;;;;;;0.40;0.40;;;23.70;56.60;;;;;;5106301;28;20061;-59
2022/09/14 05:36:18;;;;;;;0.50;0.50;;;23.80;56.60;;;;;;5106265;28;20027;-60
2022/09/14 05:38:44;;;;;;;0.50;0.50;;;23.80;56.60;;;;;;5106197;28;20031;-58
2022/09/14 05:41:12;;;;;;;0.50;0.50;;;23.80;56.60;;;;;;5106074;28;20088;-58
2022/09/14 05:43:38;;;;;;;0.40;0.40;;;23.70;56.50;;;;;;5106139;28;20327;-59
2022/09/14 05:46:07;;;;;;;0.35;0.35;;;23.70;56.50;;;;;;5106058;28;20220;-58
2022/09/14 05:48:34;;;;;;;0.40;0.40;;;23.70;56.50;;;;;;5106044;28;20020;-59
2022/09/14 05:51:02;;;;;;;0.40;0.40;;;23.70;56.50;;;;;;5105999;28;20011;-58
2022/09/14 05:53:28;;;;;;;0.35;0.35;;;23.80;56.50;;;;;;5105978;28;20031;-59
2022/09/14 05:56:06;;;;;;;0.35;0.35;;;23.80;56.50;;;;;;5105870;28;20028;-59
2022/09/14 05:58:33;;;;;;;0.40;0.40;;;23.80;56.50;;;;;;5105882;28;20041;-58
2022/09/14 06:01:09;;;;;;;0.30;0.30;;;23.70;56.50;;;;;;5105766;28;20062;-59
2022/09/14 06:03:35;;;;;;;0.50;0.50;;;23.70;56.60;;;;;;5105826;28;20012;-60
2022/09/14 06:06:02;;;;;;;0.50;0.50;;;23.70;56.50;;;;;;5105727;28;20023;-60
2022/09/14 06:08:28;;;;;;;0.40;0.40;;;23.70;56.50;;;;;;5105631;28;20365;-60
2022/09/14 06:10:53;;;;;;;0.35;0.35;;;23.80;56.50;;;;;;5105475;28;20079;-60
2022/09/14 06:13:21;;;;;;;0.98;0.95;;;23.70;56.60;;;;;;5105584;28;20016;-60
2022/09/14 06:15:47;;;;;;;0.50;0.40;;;23.70;56.60;;;;;;5105493;28;20057;-59
2022/09/14 06:18:14;;;;;;;0.50;0.50;;;23.70;56.60;;;;;;5105478;28;20096;-60
2022/09/14 06:20:48;;;;;;;0.47;0.47;;;23.70;56.60;;;;;;5105330;28;20023;-60
2022/09/14 06:23:14;;;;;;;0.50;0.50;;;23.70;56.50;;;;;;5105214;28;20027;-60
2022/09/14 06:25:41;;;;;;;0.55;0.55;;;23.80;56.60;;;;;;5105298;28;20035;-59
2022/09/14 06:28:07;;;;;;;0.40;0.40;;;23.70;56.60;;;;;;5105297;28;20023;-59
2022/09/14 06:30:33;;;;;;;0.52;0.52;;;23.70;56.60;;;;;;5105188;28;20253;-59
2022/09/14 06:32:59;;;;;;;0.38;0.38;;;23.70;56.60;;;;;;5105148;28;20020;-60
2022/09/14 06:35:25;;;;;;;0.45;0.30;;;23.70;56.60;;;;;;5105139;28;20024;-60
2022/09/14 06:37:51;;;;;;;0.50;0.50;;;23.70;56.70;;;;;;5105096;28;20019;-60
2022/09/14 06:40:17;;;;;;;0.40;0.40;;;23.70;56.70;;;;;;5104967;28;20047;-60
2022/09/14 06:42:43;;;;;;;0.47;0.47;;;23.70;56.70;;;;;;5104971;28;20027;-60
2022/09/14 06:45:09;;;;;;;0.30;0.30;;;23.70;56.70;;;;;;5104908;28;20020;-60
2022/09/14 06:47:35;;;;;;;0.40;0.40;;;23.70;56.80;;;;;;5104842;28;20083;-60
2022/09/14 06:50:01;;;;;;;0.45;0.40;;;23.70;56.80;;;;;;5104852;28;20212;-60
2022/09/14 06:52:26;;;;;;;0.45;0.45;;;23.70;56.80;;;;;;5104817;28;20087;-60
2022/09/14 06:54:54;;;;;;;0.20;0.20;;;23.70;56.70;;;;;;5104754;28;20364;-60
2022/09/14 06:57:20;;;;;;;0.40;0.40;;;23.70;56.70;;;;;;5104740;28;20031;-58
2022/09/14 06:59:45;;;;;;;0.30;0.30;;;23.70;56.70;;;;;;5104583;28;20083;-58
2022/09/14 07:02:12;;;;;;;0.50;0.50;;;23.70;56.70;;;;;;5104612;28;20020;-60
2022/09/14 07:04:38;;;;;;;0.57;0.47;;;23.70;56.70;;;;;;5104530;28;20020;-60
2022/09/14 07:07:04;;;;;;;0.45;0.45;;;23.70;56.70;;;;;;5104511;28;20066;-60
2022/09/14 07:09:30;;;;;;;0.40;0.40;;;23.70;56.70;;;;;;5104281;28;20043;-60
2022/09/14 07:11:56;;;;;;;0.55;0.50;;;23.70;56.70;;;;;;5104772;28;20078;-59
2022/09/14 07:14:22;;;;;;;0.60;0.60;;;23.70;56.60;;;;;;5104407;28;20369;-60
2022/09/14 07:16:48;;;;;;;0.60;0.60;;;23.70;56.70;;;;;;5104365;28;20357;-59
2022/09/14 07:19:14;;;;;;;0.40;0.40;;;23.70;56.60;;;;;;5104324;28;20020;-60
2022/09/14 07:21:41;;;;;;;0.40;0.40;;;23.70;56.70;;;;;;5104206;28;20046;-59
2022/09/14 07:24:07;;;;;;;0.43;0.43;;;23.70;56.70;;;;;;5104511;28;20052;-60
2022/09/14 07:26:41;;;;;;;1.27;0.40;;;23.70;56.70;;;;;;5104217;28;20042;-59
2022/09/14 07:29:12;;;;;;;7.43;1.75;;;23.70;56.60;;;;;;5104164;28;20020;-60
2022/09/14 07:31:46;;;;;;;5.50;1.30;;;23.60;56.60;;;;;;5104097;28;20030;-60
2022/09/14 07:34:13;;;;;;;3.45;1.00;;;23.60;56.70;;;;;;5103570;28;20024;-60
2022/09/14 07:36:39;;;;;;;3.80;1.30;;;23.60;56.60;;;;;;5104083;28;20020;-58
2022/09/14 07:39:07;;;;;;;7.03;1.65;;;23.60;56.80;;;;;;5095652;28;20020;-58
2022/09/14 07:41:34;;;;;;;2.80;1.23;;;23.70;56.70;;;;;;5103179;28;20243;-60
2022/09/14 07:44:03;;;;;;;6.88;1.30;;;23.70;56.60;;;;;;5103720;28;20016;-59
2022/09/14 07:46:34;;;;;;;3.10;1.42;;;23.70;56.50;;;;;;5103692;28;20039;-58
2022/09/14 07:49:01;;;;;;;5.40;1.58;;;23.70;56.50;;;;;;5103669;28;20181;-59
2022/09/14 07:51:28;;;;;;;1.92;1.42;;;23.70;56.50;;;;;;5103510;28;20020;-58
2022/09/14 07:53:54;;;;;;;7.82;1.92;;;23.70;56.50;;;;;;5102479;28;20346;-58
2022/09/14 07:56:20;;;;;;;3.45;1.73;;;23.70;56.40;;;;;;5103548;28;20026;-58
2022/09/14 07:58:47;;;;;;;4.70;1.35;;;23.70;56.40;;;;;;5096574;28;20056;-57
2022/09/14 08:01:16;;;;;;;2.50;1.10;;;23.70;56.50;;;;;;5083038;28;20309;-59
2022/09/14 08:03:43;;;;;;;2.35;1.30;;;23.70;56.70;;;;;;5082128;28;20008;-57
2022/09/14 08:06:12;;;;;;;3.42;1.38;;;23.70;56.60;;;;;;5083258;28;20305;-58
2022/09/14 08:08:41;;;;;;;2.58;1.30;;;23.70;56.50;;;;;;5083256;28;20016;-58
2022/09/14 08:11:18;;;;;;;5.20;1.77;;;23.70;56.50;;;;;;5082141;28;20240;-58
2022/09/14 08:13:55;;;;;;;3.25;1.63;;;23.70;56.50;;;;;;5083112;28;20322;-58
2022/09/14 08:16:23;;;;;;;1.83;1.35;;;23.70;56.80;;;;;;5083111;28;20052;-57
2022/09/14 08:18:54;;;;;;;5.25;1.42;;;23.70;56.70;;;;;;5083114;28;20354;-58
2022/09/14 08:21:20;;;;;;;4.40;1.55;;;23.70;56.70;;;;;;5082959;28;20033;-57
2022/09/14 08:23:45;;;;;;;2.25;1.38;;;23.70;56.70;;;;;;5083276;28;20206;-57
2022/09/14 08:26:16;;;;;;;3.03;1.15;;;23.70;56.50;;;;;;5083033;28;20328;-58
2022/09/14 08:28:42;;;;;;;3.20;1.60;;;23.80;56.50;;;;;;5082591;28;20013;-58
2022/09/14 08:31:17;;;;;;;3.60;1.80;;;23.70;56.40;;;;;;5082648;28;20335;-58
2022/09/14 08:33:44;;;;;;;7.05;2.30;;;23.80;56.90;;;;;;5083646;28;20087;-57
2022/09/14 08:36:13;;;;;;;6.93;2.60;;;23.70;56.40;;;;;;5082987;28;20047;-57
2022/09/14 08:38:39;;;;;;;2.90;1.65;;;23.80;56.50;;;;;;5084968;28;20365;-56
2022/09/14 08:41:28;;;;;;;6.65;2.08;;;23.70;56.30;;;;;;5086954;28;20047;-57
2022/09/14 08:44:15;;;;;;;2.65;1.70;;;23.80;56.30;;;;;;5082758;28;20012;-57
2022/09/14 08:46:48;;;;;;;7.10;1.80;;;23.80;56.90;;;;;;5083506;28;20029;-57
2022/09/14 08:49:42;;;;;;;3.38;1.70;;;23.80;56.20;;;;;;5086688;28;20043;-57
2022/09/14 08:52:24;;;;;;;4.95;2.47;;;23.80;56.20;;;;;;5086528;28;20013;-57
2022/09/14 08:54:58;;;;;;;6.13;2.03;;;23.80;56.20;;;;;;5086635;28;20016;-58
2022/09/14 08:57:46;;;;;;;6.90;1.88;;;23.80;56.30;;;;;;5086144;28;20016;-57
2022/09/14 09:00:15;;;;;;;9.70;2.35;;;23.80;56.30;;;;;;5045205;28;20246;-60
2022/09/14 09:02:56;;;;;;;3.95;2.22;;;23.80;56.20;;;;;;5086342;28;20240;-60
2022/09/14 09:05:31;;;;;;;6.20;2.35;;;23.70;56.60;;;;;;5085463;28;20058;-60
2022/09/14 09:08:07;;;;;;;6.45;2.40;;;23.70;56.70;;;;;;5086437;28;20013;-60
2022/09/14 09:10:36;;;;;;;7.70;2.67;;;23.50;57.10;;;;;;5086121;28;20049;-60
2022/09/14 09:13:04;;;;;;;4.68;2.50;;;23.40;57.30;;;;;;5086155;28;20044;-59
2022/09/14 09:15:36;;;;;;;;;;;23.40;57.30;;;;;;5078241;28;20047;-58
2022/09/14 09:18:18;;;;;;;5.30;2.55;;;23.40;57.40;;;;;;5066111;28;19942;-59
2022/09/14 09:20:50;;;;;;;9.68;2.17;;;23.50;57.10;;;;;;5066011;28;20017;-60
2022/09/14 09:23:19;;;;;;;5.45;2.13;;;23.70;56.80;;;;;;5065921;28;20062;-59
2022/09/14 09:25:57;;;;;;;4.25;2.08;;;23.70;56.60;;;;;;5065939;28;20059;-59
2022/09/14 09:28:25;;;;;;;4.18;1.80;;;23.80;56.60;;;;;;5066004;28;20025;-59
2022/09/14 09:30:58;;;;;;;4.15;2.15;;;23.80;56.50;;;;;;5066156;28;20328;-61
2022/09/14 09:33:26;;;;;;;8.70;1.90;;;23.80;56.70;;;;;;5065746;28;20104;-60
2022/09/14 09:35:53;;;;;;;4.45;2.33;;;23.80;56.60;;;;;;5065792;28;20032;-60
2022/09/14 09:38:25;;;;;;;5.40;1.80;;;23.80;56.60;;;;;;5065757;28;20243;-60
2022/09/14 09:41:03;;;;;;;7.50;2.33;;;23.80;56.60;;;;;;5065612;28;20216;-60
2022/09/14 09:43:29;;;;;;;5.05;1.63;;;23.80;56.60;;;;;;5065574;28;20024;-60
2022/09/14 09:46:06;;;;;;;5.80;2.25;;;23.80;56.80;;;;;;5077489;28;20016;-60
2022/09/14 09:48:41;;;;;;;3.70;2.20;;;23.80;56.80;;;;;;5082546;28;20012;-60
2022/09/14 09:51:17;;;;;;;3.63;1.73;;;23.80;56.70;;;;;;5065495;28;20021;-61
2022/09/14 09:54:13;;;;;;;3.38;2.40;;;23.80;56.70;;;;;;5065517;28;20040;-61
2022/09/14 09:56:40;;;;;;;5.35;2.00;;;23.90;56.70;;;;;;5065046;28;20058;-60
2022/09/14 09:59:34;;;;;;;4.90;1.60;;;23.90;56.60;;;;;;5065358;28;20024;-61
2022/09/14 10:02:18;;;;;;;3.58;1.85;;;24.00;56.60;;;;;;5065032;28;20025;-58
2022/09/14 10:05:18;;;;;;;5.57;1.90;;;24.00;56.60;;;;;;5047472;28;20059;-56
2022/09/14 10:08:00;;;;;;;4.25;1.83;;;24.00;56.60;;;;;;5065277;28;20059;-58
2022/09/14 10:10:42;;;;;;;3.17;1.98;;;24.00;56.80;;;;;;5079848;28;20067;-61
2022/09/14 10:13:28;;;;;;;13.95;2.33;;;23.90;56.80;;;;;;5085098;28;20035;-59
2022/09/14 10:16:12;;;;;;;1.90;1.63;;;23.90;56.80;;;;;;5084987;28;20020;-60
2022/09/14 10:18:42;;;;;;;6.20;1.90;;;24.00;56.70;;;;;;5085007;28;20032;-60
2022/09/14 10:21:08;;;;;;;4.00;1.90;;;24.00;56.60;;;;;;5070299;28;20224;-58
2022/09/14 10:23:38;;;;;;;4.45;2.25;;;24.00;56.70;;;;;;5064834;28;20041;-58
2022/09/14 10:26:13;;;;;;;3.67;1.83;;;24.00;56.60;;;;;;5064789;28;20024;-58
2022/09/14 10:28:42;;;;;;;4.93;1.60;;;24.00;56.70;;;;;;5066351;28;20083;-58
2022/09/14 10:31:13;;;;;;;3.30;1.70;;;24.00;56.70;;;;;;5084721;28;20024;-58
2022/09/14 10:33:39;;;;;;;7.22;2.10;;;24.00;56.70;;;;;;5084628;28;20024;-60
2022/09/14 10:36:23;;;;;;;3.45;1.60;;;24.00;56.60;;;;;;5084672;28;20295;-60
2022/09/14 10:39:08;;;;;;;2.42;1.90;;;24.00;56.60;;;;;;5084600;28;20021;-59
2022/09/14 10:41:57;;;;;;;3.85;2.10;;;24.00;56.60;;;;;;5084319;28;20034;-59
2022/09/14 10:44:51;;;;;;;1.70;1.30;;;24.10;56.70;;;;;;5066762;28;20021;-60
2022/09/14 10:47:38;;;;;;;2.83;1.60;;;24.10;56.70;;;;;;5084729;28;20086;-60
2022/09/14 10:50:44;;;;;;;2.40;1.60;;;24.10;56.60;;;;;;5084366;28;20013;-58
2022/09/14 10:53:51;;;;;;;1.98;1.80;;;24.10;56.60;;;;;;5084174;28;20204;-59
2022/09/14 10:56:24;;;;;;;3.78;1.95;;;24.10;56.70;;;;;;5084301;28;20020;-60
2022/09/14 10:58:52;;;;;;;3.22;1.38;;;24.10;56.70;;;;;;5084209;28;20028;-57
2022/09/14 11:01:18;;;;;;;2.58;1.80;;;24.10;56.70;;;;;;5083920;28;20020;-56
2022/09/14 11:04:09;;;;;;;2.78;1.55;;;24.10;56.60;;;;;;5078819;28;20085;-59
2022/09/14 11:06:41;;;;;;;5.05;1.63;;;24.10;56.60;;;;;;5063099;28;20098;-62
2022/09/14 11:09:21;;;;;;;8.38;1.88;;;24.10;56.90;;;;;;5063344;28;20017;-61
2022/09/14 11:12:03;;;;;;;2.65;1.88;;;24.00;57.50;;;;;;5043945;28;20256;-61
2022/09/14 11:15:12;;;;;;;1.90;1.70;;;24.00;57.00;;;;;;5044093;28;20017;-61
2022/09/14 11:17:38;;;;;;;3.83;1.88;;;24.10;57.00;;;;;;5003223;28;20029;-60
2022/09/14 11:20:16;;;;;;;2.22;2.00;;;24.10;57.10;;;;;;5044084;28;20056;-61
2022/09/14 11:22:54;;;;;;;3.80;1.52;;;24.10;57.00;;;;;;5044053;28;20029;-62
2022/09/14 11:25:26;;;;;;;3.03;2.08;;;24.10;57.00;;;;;;5044015;28;20062;-61
2022/09/14 11:27:59;;;;;;;3.60;2.22;;;24.10;57.10;;;;;;5043952;28;20309;-60
2022/09/14 11:30:54;;;;;;;3.72;2.03;;;24.10;57.00;;;;;;5043920;28;20085;-61
2022/09/14 11:33:32;;;;;;;2.45;1.55;;;24.10;57.10;;;;;;5043919;28;20017;-61
2022/09/14 11:36:05;;;;;;;2.75;1.65;;;24.10;57.10;;;;;;5043811;28;20021;-61
2022/09/14 11:38:40;;;;;;;3.47;1.52;;;24.10;57.10;;;;;;5043780;28;20198;-61
2022/09/14 11:41:17;;;;;;;1.90;1.50;;;24.10;57.10;;;;;;5043693;28;20017;-60
2022/09/14 11:43:59;;;;;;;2.45;1.55;;;24.10;57.10;;;;;;5043773;28;20063;-61
2022/09/14 11:46:40;;;;;;;3.30;1.67;;;24.10;57.00;;;;;;5043701;28;20056;-60
2022/09/14 11:49:38;;;;;;;2.60;1.70;;;24.10;56.90;;;;;;5043654;28;20081;-61
2022/09/14 11:52:16;;;;;;;2.47;1.77;;;24.00;56.80;;;;;;5009834;28;20273;-61
2022/09/14 11:54:43;;;;;;;2.00;1.67;;;24.00;56.80;;;;;;5043593;28;20062;-60
2022/09/14 11:57:32;;;;;;;3.08;1.45;;;24.10;56.90;;;;;;5043564;28;20021;-61
2022/09/14 12:00:00;;;;;;;1.70;1.60;;;24.10;56.70;;;;;;5033313;28;20313;-61
2022/09/14 12:02:29;;;;;;;2.38;1.70;;;24.10;56.80;;;;;;5043496;28;20024;-62
2022/09/14 12:05:04;;;;;;;2.03;1.50;;;24.10;56.70;;;;;;5043435;28;20036;-62
2022/09/14 12:07:38;;;;;;;2.50;1.63;;;24.10;56.70;;;;;;5043415;28;20017;-61
2022/09/14 12:10:30;;;;;;;2.92;1.45;;;24.10;57.20;;;;;;5050727;28;20112;-61
2022/09/14 12:13:17;;;;;;;2.33;1.45;;;24.10;56.70;;;;;;5059652;28;20031;-61
2022/09/14 12:15:43;;;;;;;3.15;1.60;;;24.10;56.80;;;;;;5063175;28;20017;-62
2022/09/14 12:18:09;;;;;;;4.50;1.60;;;24.10;56.80;;;;;;5063273;28;20017;-62
2022/09/14 12:20:39;;;;;;;4.07;1.50;;;24.10;56.70;;;;;;5064660;28;20055;-62
2022/09/14 12:23:25;;;;;;;2.90;1.60;;;24.10;56.70;;;;;;5067365;28;20036;-62
2022/09/14 12:26:09;;;;;;;3.35;1.50;;;24.10;56.60;;;;;;5067229;28;20263;-62
2022/09/14 12:28:35;;;;;;;2.70;1.77;;;24.20;56.70;;;;;;5067295;28;20217;-61
2022/09/14 12:31:03;;;;;;;2.00;1.50;;;24.20;56.60;;;;;;5067510;28;20020;-61
2022/09/14 12:33:32;;;;;;;1.95;1.40;;;24.20;56.50;;;;;;5067218;28;20021;-61
2022/09/14 12:36:05;;;;;;;1.90;1.25;;;24.30;56.40;;;;;;5067375;28;20021;-61
2022/09/14 12:38:41;;;;;;;2.13;1.35;;;24.30;56.30;;;;;;5067109;28;20021;-61
2022/09/14 12:41:07;;;;;;;8.25;2.03;;;24.30;56.40;;;;;;5066999;28;20058;-61
2022/09/14 12:43:33;;;;;;;4.93;1.42;;;24.30;56.40;;;;;;5067038;28;20076;-61
2022/09/14 12:46:29;;;;;;;3.50;1.95;;;24.30;56.30;;;;;;5049168;28;20013;-61
2022/09/14 12:48:58;;;;;;;3.90;1.60;;;24.40;56.20;;;;;;5067547;28;20036;-61
2022/09/14 12:51:27;;;;;;;1.85;1.60;;;24.40;56.30;;;;;;5066836;28;20119;-60
2022/09/14 12:54:23;;;;;;;3.33;1.63;;;24.40;56.20;;;;;;5066794;28;20021;-61
2022/09/14 12:56:49;;;;;;;1.60;1.50;;;24.40;56.10;;;;;;5065272;28;20028;-61
2022/09/14 12:59:46;;;;;;;1.63;1.38;;;24.40;56.10;;;;;;5066750;28;20025;-61
2022/09/14 13:02:49;;;;;;;2.50;1.30;;;24.40;56.00;;;;;;5066654;28;20070;-61
2022/09/14 13:05:18;;;;;;;3.40;1.48;;;24.60;55.90;;;;;;5066657;28;20063;-62
2022/09/14 13:07:45;;;;;;;1.60;1.50;;;24.60;55.60;;;;;;5066496;28;20054;-61
2022/09/14 13:10:35;;;;;;;2.15;1.17;;;24.80;55.40;;;;;;5066348;28;20040;-62
2022/09/14 13:13:05;;;;;;;2.08;1.40;;;24.90;55.10;;;;;;5066469;28;20031;-63